Terminal Aerodrome Forecast
Issued by NWS

Home | Current Version | Previous Version | Text Only | Print | Product List | Glossary On
Versions: 1 2 3 4 5 6 7 8 9 10 11 12
000
FTUS42 KMLB 242326
TAFFPR
TAF
KFPR 242326Z 2500/2524 11009KT P6SM VCSH SCT030
     FM250200 13004KT P6SM SCT250
     FM251300 15007KT P6SM SCT040
     FM251600 12010KT P6SM VCTS BKN035CB
     FM252200 12012KT P6SM SCT035 BKN250=

USA.gov is the U.S. government's official web portal to all federal, state and local government web resources and services.